createdAt,value
2022-10-17T00:00:37.389Z,9.462967
2022-10-17T00:01:37.460Z,9.462956
2022-10-17T00:02:37.353Z,9.462954
2022-10-17T00:03:37.353Z,9.462955
2022-10-17T00:04:37.361Z,9.462942
2022-10-17T00:05:37.345Z,9.462974
2022-10-17T00:06:37.358Z,9.463012
2022-10-17T00:07:37.343Z,9.463012
2022-10-17T00:08:37.334Z,9.463017
2022-10-17T00:09:37.311Z,9.463020
2022-10-17T00:10:37.331Z,9.463015
2022-10-17T00:11:37.290Z,9.463004
2022-10-17T00:12:37.314Z,9.463013
2022-10-17T00:13:37.279Z,9.463024
2022-10-17T00:14:37.273Z,9.463025
2022-10-17T00:15:37.286Z,9.463011
2022-10-17T00:16:37.292Z,9.462998
2022-10-17T00:17:37.258Z,9.463008
2022-10-17T00:18:37.257Z,9.463010
2022-10-17T00:19:37.233Z,9.462949
2022-10-17T00:20:37.240Z,9.462975
2022-10-17T00:21:37.237Z,9.463022
2022-10-17T00:22:37.263Z,9.463076
2022-10-17T00:23:37.219Z,9.463062
2022-10-17T00:24:37.222Z,9.463064
2022-10-17T00:25:37.200Z,9.463083
2022-10-17T00:26:37.190Z,9.463035
2022-10-17T00:27:37.192Z,9.463029
2022-10-17T00:28:37.268Z,9.462999
2022-10-17T00:29:37.167Z,9.462895
2022-10-17T00:30:37.160Z,9.463097
2022-10-17T00:31:37.155Z,9.463022
2022-10-17T00:32:37.162Z,9.462867
2022-10-17T00:33:37.158Z,9.462874
2022-10-17T00:34:37.271Z,9.463391
2022-10-17T00:35:37.125Z,9.463393
2022-10-17T00:36:37.126Z,9.463133
2022-10-17T00:37:37.108Z,9.462943
2022-10-17T00:38:37.458Z,9.463203
2022-10-17T00:39:37.091Z,9.463234
2022-10-17T00:40:37.088Z,9.463172
2022-10-17T00:41:37.070Z,9.463179
2022-10-17T00:42:37.087Z,9.463224
2022-10-17T00:43:37.072Z,9.463067
2022-10-17T00:44:37.085Z,9.463124
2022-10-17T00:45:37.049Z,9.463049
2022-10-17T00:46:37.065Z,9.462998
2022-10-17T00:47:37.490Z,9.462994
2022-10-17T00:48:37.032Z,9.462964
2022-10-17T00:49:37.012Z,9.462896
2022-10-17T00:50:37.007Z,9.462955
2022-10-17T00:51:37.009Z,9.463033
2022-10-17T00:52:37.010Z,9.463034
2022-10-17T00:53:36.996Z,9.463042
2022-10-17T00:54:37.008Z,9.462997
2022-10-17T00:55:36.971Z,9.462981
2022-10-17T00:56:36.958Z,9.462949
2022-10-17T00:57:37.648Z,9.462992
2022-10-17T00:58:36.956Z,9.462951
2022-10-17T00:59:36.952Z,9.462945
2022-10-17T01:00:36.964Z,9.462976
2022-10-17T01:01:36.989Z,9.462978
2022-10-17T01:02:37.340Z,9.463012
2022-10-17T01:03:36.924Z,9.462959
2022-10-17T01:04:36.902Z,9.463022
2022-10-17T01:05:37.129Z,9.463013
2022-10-17T01:06:36.899Z,9.463040
2022-10-17T01:07:37.419Z,9.463112
2022-10-17T01:08:36.879Z,9.463091
2022-10-17T01:09:36.881Z,9.463090
2022-10-17T01:10:36.883Z,9.463027
2022-10-17T01:11:36.859Z,9.463019
2022-10-17T01:12:36.856Z,9.463034
2022-10-17T01:13:36.840Z,9.463062
2022-10-17T01:14:36.839Z,9.463043
2022-10-17T01:15:36.858Z,9.463059
2022-10-17T01:16:36.826Z,9.463030
2022-10-17T01:17:36.814Z,9.463044
2022-10-17T01:18:36.814Z,9.463019
2022-10-17T01:19:36.806Z,9.462990
2022-10-17T01:20:36.800Z,9.463044
2022-10-17T01:21:36.794Z,9.463048
2022-10-17T01:22:36.789Z,9.462927
2022-10-17T01:23:36.778Z,9.462950
2022-10-17T01:24:36.760Z,9.463016
2022-10-17T01:25:36.780Z,9.463043
2022-10-17T01:26:36.798Z,9.463021
2022-10-17T01:27:36.738Z,9.463011
2022-10-17T01:28:36.868Z,9.462996
2022-10-17T01:29:36.774Z,9.463053
2022-10-17T01:30:36.720Z,9.463035
2022-10-17T01:31:36.750Z,9.463044
2022-10-17T01:32:36.720Z,9.463010
2022-10-17T01:33:36.698Z,9.463001
2022-10-17T01:34:36.706Z,9.462989
2022-10-17T01:35:36.688Z,9.463046
2022-10-17T01:36:36.680Z,9.462943
2022-10-17T01:37:36.714Z,9.462980
2022-10-17T01:38:36.673Z,9.462935
2022-10-17T01:39:38.426Z,9.462940
2022-10-17T01:40:36.650Z,9.463017
2022-10-17T01:41:36.640Z,9.463024
2022-10-17T01:42:36.654Z,9.463008
2022-10-17T01:43:36.697Z,9.462986
2022-10-17T01:44:36.614Z,9.462973
2022-10-17T01:45:36.757Z,9.462923
2022-10-17T01:46:36.601Z,9.462955
2022-10-17T01:47:36.598Z,9.463106
2022-10-17T01:48:36.594Z,9.463006
2022-10-17T01:49:36.700Z,9.463036
2022-10-17T01:50:36.568Z,9.462993
2022-10-17T01:51:36.573Z,9.462792
2022-10-17T01:52:36.574Z,9.462859
2022-10-17T01:53:36.556Z,9.462987
2022-10-17T01:54:36.547Z,9.463036
2022-10-17T01:55:36.668Z,9.462978
2022-10-17T01:56:36.529Z,9.463093
2022-10-17T01:57:36.525Z,9.463070
2022-10-17T01:58:36.539Z,9.462912
2022-10-17T01:59:36.519Z,9.462916
2022-10-17T02:00:36.508Z,9.462955
2022-10-17T02:01:36.567Z,9.463037
2022-10-17T02:02:36.511Z,9.463078
2022-10-17T02:03:36.532Z,9.463008
2022-10-17T02:04:36.475Z,9.463023
2022-10-17T02:05:36.463Z,9.463036
2022-10-17T02:06:36.465Z,9.463037
2022-10-17T02:07:36.448Z,9.462967
2022-10-17T02:08:36.459Z,9.462955
2022-10-17T02:09:36.681Z,9.463005
2022-10-17T02:10:36.449Z,9.462926
2022-10-17T02:11:36.426Z,9.462926
2022-10-17T02:12:36.418Z,9.463010
2022-10-17T02:13:36.417Z,9.463067
2022-10-17T02:14:36.437Z,9.463107
2022-10-17T02:15:36.434Z,9.463127
2022-10-17T02:16:36.388Z,9.463098
2022-10-17T02:17:36.386Z,9.463183
2022-10-17T02:18:36.387Z,9.463217
2022-10-17T02:19:36.389Z,9.463082
2022-10-17T02:20:36.372Z,9.462977
2022-10-17T02:21:36.366Z,9.463060
2022-10-17T02:22:36.354Z,9.463098
2022-10-17T02:23:36.362Z,9.463099
2022-10-17T02:24:36.336Z,9.463022
2022-10-17T02:25:36.353Z,9.462965
2022-10-17T02:26:36.346Z,9.463036
2022-10-17T02:27:36.312Z,9.463052
2022-10-17T02:28:36.377Z,9.463040
2022-10-17T02:29:36.307Z,9.463006
2022-10-17T02:30:36.661Z,9.462962
2022-10-17T02:31:36.283Z,9.462992
2022-10-17T02:32:36.320Z,9.462929
2022-10-17T02:33:36.279Z,9.462997
2022-10-17T02:34:36.270Z,9.462997
2022-10-17T02:35:36.261Z,9.462987
2022-10-17T02:36:36.254Z,9.462998
2022-10-17T02:37:36.250Z,9.462994
2022-10-17T02:38:36.264Z,9.463002
2022-10-17T02:39:36.238Z,9.463001
2022-10-17T02:40:36.235Z,9.463030
2022-10-17T02:41:36.223Z,9.463026
2022-10-17T02:42:36.211Z,9.462994
2022-10-17T02:43:36.233Z,9.462991
2022-10-17T02:44:36.194Z,9.462991
2022-10-17T02:45:36.647Z,9.463004
2022-10-17T02:46:36.216Z,9.463021
2022-10-17T02:47:36.175Z,9.463019
2022-10-17T02:48:36.175Z,9.463016
2022-10-17T02:49:36.173Z,9.463007
2022-10-17T02:50:36.180Z,9.462988
2022-10-17T02:51:36.173Z,9.463000
2022-10-17T02:52:36.148Z,9.463021
2022-10-17T02:53:36.129Z,9.463041
2022-10-17T02:54:36.140Z,9.463038
2022-10-17T02:55:36.142Z,9.463068
2022-10-17T02:56:36.139Z,9.463086
2022-10-17T02:57:36.126Z,9.463091
2022-10-17T02:58:36.098Z,9.463074
2022-10-17T02:59:36.272Z,9.463060
2022-10-17T03:00:36.111Z,9.463032
2022-10-17T03:01:36.156Z,9.463011
2022-10-17T03:02:36.095Z,9.463022
2022-10-17T03:03:36.065Z,9.463051
2022-10-17T03:04:36.054Z,9.463078
2022-10-17T03:05:36.078Z,9.463058
2022-10-17T03:06:36.053Z,9.463057
2022-10-17T03:07:36.026Z,9.463068
2022-10-17T03:08:36.028Z,9.463050
2022-10-17T03:09:36.022Z,9.463051
2022-10-17T03:10:36.502Z,9.463054
2022-10-17T03:11:35.997Z,9.463085
2022-10-17T03:12:35.997Z,9.463065
2022-10-17T03:13:39.037Z,9.463063
2022-10-17T03:14:35.988Z,9.463074
2022-10-17T03:15:36.000Z,9.463093
2022-10-17T03:16:35.967Z,9.463083
2022-10-17T03:17:36.064Z,9.463073
2022-10-17T03:18:35.976Z,9.463050
2022-10-17T03:19:35.941Z,9.463056
2022-10-17T03:20:35.945Z,9.463068
2022-10-17T03:21:35.941Z,9.463107
2022-10-17T03:22:35.964Z,9.463042
2022-10-17T03:23:35.924Z,9.463094
2022-10-17T03:24:35.904Z,9.463117
2022-10-17T03:25:35.900Z,9.463066
2022-10-17T03:26:35.968Z,9.463032
2022-10-17T03:27:36.153Z,9.462996
2022-10-17T03:28:35.959Z,9.463021
2022-10-17T03:29:35.882Z,9.462996
2022-10-17T03:30:35.867Z,9.463037
2022-10-17T03:31:35.886Z,9.463060
2022-10-17T03:32:35.846Z,9.463052
2022-10-17T03:33:35.840Z,9.463001
2022-10-17T03:34:35.867Z,9.462997
2022-10-17T03:35:35.839Z,9.463043
2022-10-17T03:36:35.819Z,9.463137
2022-10-17T03:37:35.828Z,9.463179
2022-10-17T03:38:35.823Z,9.463139
2022-10-17T03:39:35.893Z,9.463270
2022-10-17T03:40:35.818Z,9.463110
2022-10-17T03:41:35.796Z,9.463147
2022-10-17T03:42:35.792Z,9.463142
2022-10-17T03:43:35.776Z,9.463081
2022-10-17T03:44:35.771Z,9.463034
2022-10-17T03:45:35.771Z,9.463095
2022-10-17T03:46:35.760Z,9.463082
2022-10-17T03:47:35.763Z,9.463123
2022-10-17T03:48:35.742Z,9.463006
2022-10-17T03:49:36.424Z,9.463068
2022-10-17T03:50:35.751Z,9.462951
2022-10-17T03:51:35.722Z,9.463074
2022-10-17T03:52:35.725Z,9.463035
2022-10-17T03:53:35.717Z,9.463184
2022-10-17T03:54:35.732Z,9.463342
2022-10-17T03:55:35.691Z,9.463304
2022-10-17T03:56:35.691Z,9.463171
2022-10-17T03:57:35.715Z,9.463139
2022-10-17T03:58:35.675Z,9.463039
2022-10-17T03:59:35.671Z,9.463302
2022-10-17T04:00:35.657Z,9.463008
2022-10-17T04:01:35.745Z,9.462982
2022-10-17T04:02:35.656Z,9.463118
2022-10-17T04:03:35.688Z,9.463126
2022-10-17T04:04:35.636Z,9.462975
2022-10-17T04:05:35.632Z,9.462898
2022-10-17T04:06:35.644Z,9.462944
2022-10-17T04:07:35.608Z,9.463053
2022-10-17T04:08:35.628Z,9.462990
2022-10-17T04:09:35.601Z,9.463022
2022-10-17T04:10:35.620Z,9.462994
2022-10-17T04:11:35.588Z,9.463053
2022-10-17T04:12:35.576Z,9.462980
2022-10-17T04:13:35.866Z,9.462801
2022-10-17T04:14:35.565Z,9.462855
2022-10-17T04:15:35.552Z,9.462945
2022-10-17T04:16:35.553Z,9.462936
2022-10-17T04:17:38.012Z,9.462837
2022-10-17T04:18:35.541Z,9.462817
2022-10-17T04:19:35.525Z,9.462834
2022-10-17T04:20:35.519Z,9.463008
2022-10-17T04:21:35.510Z,9.463076
2022-10-17T04:22:35.551Z,9.463042
2022-10-17T04:23:35.501Z,9.463042
2022-10-17T04:24:35.487Z,9.463007
2022-10-17T04:25:36.739Z,9.463010
2022-10-17T04:26:35.488Z,9.463383
2022-10-17T04:27:35.498Z,9.463362
2022-10-17T04:28:42.507Z,9.463058
2022-10-17T04:29:35.456Z,9.463088
2022-10-17T04:30:35.456Z,9.463011
2022-10-17T04:31:35.434Z,9.462976
2022-10-17T04:32:35.435Z,9.463080
2022-10-17T04:33:35.429Z,9.462993
2022-10-17T04:34:35.439Z,9.463010
2022-10-17T04:35:35.406Z,9.462898
2022-10-17T04:36:35.400Z,9.462907
2022-10-17T04:37:35.398Z,9.462841
2022-10-17T04:38:35.419Z,9.462976
2022-10-17T04:39:35.400Z,9.462986
2022-10-17T04:40:35.386Z,9.463000
2022-10-17T04:41:35.372Z,9.463045
2022-10-17T04:42:35.360Z,9.462927
2022-10-17T04:43:35.365Z,9.462915
2022-10-17T04:44:35.361Z,9.462910
2022-10-17T04:45:35.335Z,9.462900
2022-10-17T04:46:35.335Z,9.462864
2022-10-17T04:47:35.340Z,9.462890
2022-10-17T04:48:35.316Z,9.462886
2022-10-17T04:49:35.347Z,9.462904
2022-10-17T04:50:35.314Z,9.462930
2022-10-17T04:51:35.293Z,9.462868
2022-10-17T04:52:35.291Z,9.462880
2022-10-17T04:53:35.296Z,9.462916
2022-10-17T04:54:35.318Z,9.462976
2022-10-17T04:55:35.277Z,9.463037
2022-10-17T04:56:35.257Z,9.462967
2022-10-17T04:57:35.256Z,9.462976
2022-10-17T04:58:35.248Z,9.463129
2022-10-17T04:59:35.261Z,9.463069
2022-10-17T05:00:35.275Z,9.462953
2022-10-17T05:01:35.233Z,9.462854
2022-10-17T05:02:35.223Z,9.462959
2022-10-17T05:03:35.214Z,9.463097
2022-10-17T05:04:35.212Z,9.462871
2022-10-17T05:05:35.258Z,9.462856
2022-10-17T05:06:35.190Z,9.463011
2022-10-17T05:07:35.193Z,9.462893
2022-10-17T05:08:35.184Z,9.462985
2022-10-17T05:09:35.175Z,9.462925
2022-10-17T05:10:35.244Z,9.462922
2022-10-17T05:11:35.156Z,9.462915
2022-10-17T05:12:35.154Z,9.462828
2022-10-17T05:13:35.167Z,9.462852
2022-10-17T05:14:35.138Z,9.462820
2022-10-17T05:15:35.143Z,9.462838
2022-10-17T05:16:35.119Z,9.462865
2022-10-17T05:17:35.138Z,9.462866
2022-10-17T05:18:35.104Z,9.462853
2022-10-17T05:19:35.096Z,9.462867
2022-10-17T05:20:35.095Z,9.462955
2022-10-17T05:21:35.088Z,9.462976
2022-10-17T05:22:38.251Z,9.462956
2022-10-17T05:23:36.069Z,9.462948
2022-10-17T05:24:35.056Z,9.462978
2022-10-17T05:25:35.050Z,9.462947
2022-10-17T05:26:35.089Z,9.462981
2022-10-17T05:27:35.040Z,9.462976
2022-10-17T05:28:35.128Z,9.463002
2022-10-17T05:29:35.059Z,9.462903
2022-10-17T05:30:36.870Z,9.462937
2022-10-17T05:31:35.021Z,9.462950
2022-10-17T05:32:35.010Z,9.462962
2022-10-17T05:33:35.015Z,9.462992
2022-10-17T05:34:34.999Z,9.463005
2022-10-17T05:35:34.994Z,9.462962
2022-10-17T05:36:34.977Z,9.462919
2022-10-17T05:37:34.977Z,9.462906
2022-10-17T05:38:35.002Z,9.462936
2022-10-17T05:39:34.970Z,9.462922
2022-10-17T05:40:34.955Z,9.462933
2022-10-17T05:41:34.960Z,9.462944
2022-10-17T05:42:35.064Z,9.462943
2022-10-17T05:43:34.926Z,9.462930
2022-10-17T05:44:34.930Z,9.462934
2022-10-17T05:45:34.911Z,9.462946
2022-10-17T05:46:35.578Z,9.462947
2022-10-17T05:47:34.903Z,9.462944
2022-10-17T05:48:34.892Z,9.462909
2022-10-17T05:49:45.183Z,9.462964
2022-10-17T05:50:35.879Z,9.462983
2022-10-17T05:51:34.958Z,9.462907
2022-10-17T05:52:34.868Z,9.463003
2022-10-17T05:53:34.851Z,9.462938
2022-10-17T05:54:34.857Z,9.462958
2022-10-17T05:55:35.605Z,9.462987
2022-10-17T05:56:34.859Z,9.462995
2022-10-17T05:57:34.828Z,9.463047
2022-10-17T05:58:52.303Z,9.463017
2022-10-17T05:59:35.818Z,9.462988
2022-10-17T06:00:34.868Z,9.462977
2022-10-17T06:01:34.864Z,9.462966
2022-10-17T06:02:34.790Z,9.463016
2022-10-17T06:03:34.787Z,9.463004
2022-10-17T06:04:34.801Z,9.462991
2022-10-17T06:05:34.767Z,9.463011
2022-10-17T06:06:34.766Z,9.462976
2022-10-17T06:07:34.786Z,9.463057
2022-10-17T06:08:34.757Z,9.463057
2022-10-17T06:09:34.810Z,9.463015
2022-10-17T06:10:34.735Z,9.463074
2022-10-17T06:11:34.730Z,9.463007
2022-10-17T06:12:34.729Z,9.463028
2022-10-17T06:13:34.737Z,9.463019
2022-10-17T06:14:34.730Z,9.463011
2022-10-17T06:15:34.703Z,9.463007
2022-10-17T06:16:34.717Z,9.462991
2022-10-17T06:17:34.690Z,9.463021
2022-10-17T06:18:34.716Z,9.463041
2022-10-17T06:19:34.711Z,9.462991
2022-10-17T06:20:34.668Z,9.462990
2022-10-17T06:21:34.669Z,9.463000
2022-10-17T06:22:34.654Z,9.463025
2022-10-17T06:23:34.651Z,9.463024
2022-10-17T06:24:34.659Z,9.462987
2022-10-17T06:25:34.649Z,9.462984
2022-10-17T06:26:34.709Z,9.462997
2022-10-17T06:27:34.627Z,9.463017
2022-10-17T06:28:34.788Z,9.463027
2022-10-17T06:29:34.610Z,9.463025
2022-10-17T06:30:34.630Z,9.463029
2022-10-17T06:31:35.109Z,9.463006
2022-10-17T06:32:35.046Z,9.462996
2022-10-17T06:33:34.581Z,9.463002
2022-10-17T06:34:34.571Z,9.463017
2022-10-17T06:35:34.561Z,9.462993
2022-10-17T06:36:34.557Z,9.462949
2022-10-17T06:37:36.538Z,9.462928
2022-10-17T06:38:34.546Z,9.462910
2022-10-17T06:39:34.698Z,9.463018
2022-10-17T06:40:34.528Z,9.462988
2022-10-17T06:41:34.529Z,9.463007
2022-10-17T06:42:34.607Z,9.463036
2022-10-17T06:43:34.506Z,9.463044
2022-10-17T06:44:34.516Z,9.463075
2022-10-17T06:45:34.498Z,9.463043
2022-10-17T06:46:34.532Z,9.463092
2022-10-17T06:47:34.478Z,9.463034
2022-10-17T06:48:35.144Z,9.463011
2022-10-17T06:49:34.461Z,9.463047
2022-10-17T06:50:34.458Z,9.463102
2022-10-17T06:51:34.467Z,9.463090
2022-10-17T06:52:34.450Z,9.463032
2022-10-17T06:53:34.434Z,9.463058
2022-10-17T06:54:34.430Z,9.463077
2022-10-17T06:55:34.412Z,9.463009
2022-10-17T06:56:34.422Z,9.463001
2022-10-17T06:57:34.414Z,9.463037
2022-10-17T06:58:34.395Z,9.462963
2022-10-17T06:59:34.388Z,9.463004
2022-10-17T07:00:34.559Z,9.463014
2022-10-17T07:01:34.395Z,9.463006
2022-10-17T07:02:34.415Z,9.463025
2022-10-17T07:03:34.357Z,9.463004
2022-10-17T07:04:34.354Z,9.462987
2022-10-17T07:05:34.349Z,9.462963
2022-10-17T07:06:34.341Z,9.462981
2022-10-17T07:07:34.335Z,9.463128
2022-10-17T07:08:34.389Z,9.463113
2022-10-17T07:09:34.321Z,9.463034
2022-10-17T07:10:34.308Z,9.462974
2022-10-17T07:11:34.305Z,9.463002
2022-10-17T07:12:34.514Z,9.463005
2022-10-17T07:13:38.830Z,9.463034
2022-10-17T07:14:34.284Z,9.463025
2022-10-17T07:15:34.280Z,9.462986
2022-10-17T07:16:34.268Z,9.462990
2022-10-17T07:17:34.261Z,9.463001
2022-10-17T07:18:34.300Z,9.463033
2022-10-17T07:19:34.250Z,9.463003
2022-10-17T07:20:34.242Z,9.462990
2022-10-17T07:21:36.715Z,9.463006
2022-10-17T07:22:34.400Z,9.462994
2022-10-17T07:23:34.226Z,9.462997
2022-10-17T07:24:34.211Z,9.463046
2022-10-17T07:25:36.462Z,9.463086
2022-10-17T07:26:35.658Z,9.463032
2022-10-17T07:27:34.192Z,9.463051
2022-10-17T07:28:34.243Z,9.462981
2022-10-17T07:29:34.522Z,9.463062
2022-10-17T07:30:34.177Z,9.463035
2022-10-17T07:31:34.160Z,9.463008
2022-10-17T07:32:34.156Z,9.463017
2022-10-17T07:33:34.179Z,9.463016
2022-10-17T07:34:34.191Z,9.462978
2022-10-17T07:35:34.177Z,9.462981
2022-10-17T07:36:34.141Z,9.462967
2022-10-17T07:37:34.293Z,9.462990
2022-10-17T07:38:34.150Z,9.462960
2022-10-17T07:39:34.099Z,9.462967
2022-10-17T07:40:34.103Z,9.462962
2022-10-17T07:41:34.104Z,9.462976
2022-10-17T07:42:34.130Z,9.462978
2022-10-17T07:43:34.138Z,9.462973
2022-10-17T07:44:34.070Z,9.462960
2022-10-17T07:45:34.077Z,9.462966
2022-10-17T07:46:34.063Z,9.462974
2022-10-17T07:47:34.045Z,9.462966
2022-10-17T07:48:34.054Z,9.462978
2022-10-17T07:49:34.042Z,9.462976
2022-10-17T07:50:34.068Z,9.463018
2022-10-17T07:51:34.314Z,9.463020
2022-10-17T07:52:34.021Z,9.463012
2022-10-17T07:53:34.005Z,9.463025
2022-10-17T07:54:34.012Z,9.462989
2022-10-17T07:55:34.001Z,9.463000
2022-10-17T07:56:33.987Z,9.462991
2022-10-17T07:57:34.825Z,9.463028
2022-10-17T07:58:33.982Z,9.462987
2022-10-17T07:59:34.136Z,9.463017
2022-10-17T08:00:34.049Z,9.463026
2022-10-17T08:01:33.965Z,9.463107
2022-10-17T08:02:34.491Z,9.463138
2022-10-17T08:03:33.952Z,9.463115
2022-10-17T08:04:33.934Z,9.463091
2022-10-17T08:05:33.932Z,9.463034
2022-10-17T08:06:33.958Z,9.463017
2022-10-17T08:07:33.931Z,9.463047
2022-10-17T08:08:33.944Z,9.463041
2022-10-17T08:09:33.903Z,9.462957
2022-10-17T08:10:33.893Z,9.463003
2022-10-17T08:11:33.894Z,9.463047
2022-10-17T08:12:33.893Z,9.463014
2022-10-17T08:13:33.896Z,9.462957
2022-10-17T08:14:33.877Z,9.462971
2022-10-17T08:15:33.895Z,9.462952
2022-10-17T08:16:33.863Z,9.462894
2022-10-17T08:17:33.851Z,9.462831
2022-10-17T08:18:33.857Z,9.462878
2022-10-17T08:19:33.843Z,9.462986
2022-10-17T08:20:33.853Z,9.463076
2022-10-17T08:21:33.826Z,9.462996
2022-10-17T08:22:33.905Z,9.463001
2022-10-17T08:23:33.813Z,9.462881
2022-10-17T08:24:33.804Z,9.462831
2022-10-17T08:25:33.827Z,9.462923
2022-10-17T08:26:33.797Z,9.462976
2022-10-17T08:27:33.803Z,9.462961
2022-10-17T08:28:33.813Z,9.463009
2022-10-17T08:29:33.784Z,9.463024
2022-10-17T08:30:33.769Z,9.463037
2022-10-17T08:31:33.907Z,9.463120
2022-10-17T08:32:33.764Z,9.463002
2022-10-17T08:33:33.754Z,9.463047
2022-10-17T08:34:33.748Z,9.463018
2022-10-17T08:35:33.752Z,9.463005
2022-10-17T08:36:33.722Z,9.463038
2022-10-17T08:37:34.046Z,9.463107
2022-10-17T08:38:35.583Z,9.463032
2022-10-17T08:39:33.708Z,9.463066
2022-10-17T08:40:33.739Z,9.463054
2022-10-17T08:41:33.731Z,9.463067
2022-10-17T08:42:33.685Z,9.463137
2022-10-17T08:43:35.586Z,9.463045
2022-10-17T08:44:33.669Z,9.463140
2022-10-17T08:45:33.667Z,9.463053
2022-10-17T08:46:33.673Z,9.463035
2022-10-17T08:47:33.669Z,9.463074
2022-10-17T08:48:33.649Z,9.463060
2022-10-17T08:49:33.633Z,9.462982
2022-10-17T08:50:33.629Z,9.463021
2022-10-17T08:51:33.628Z,9.463037
2022-10-17T08:52:33.635Z,9.463019
2022-10-17T08:53:34.073Z,9.463017
2022-10-17T08:54:33.639Z,9.462976
2022-10-17T08:55:33.897Z,9.462956
2022-10-17T08:56:47.931Z,9.463073
2022-10-17T08:57:34.582Z,9.463006
2022-10-17T08:58:33.852Z,9.463071
2022-10-17T08:59:34.264Z,9.462996
2022-10-17T09:00:33.562Z,9.463055
2022-10-17T09:01:33.546Z,9.463038
2022-10-17T09:02:33.606Z,9.462966
2022-10-17T09:03:33.537Z,9.463023
2022-10-17T09:04:33.562Z,9.463034
2022-10-17T09:05:33.537Z,9.463051
2022-10-17T09:06:33.517Z,9.462978
2022-10-17T09:07:33.535Z,9.462952
2022-10-17T09:08:33.511Z,9.462977
2022-10-17T09:09:33.510Z,9.463024
2022-10-17T09:10:33.503Z,9.463057
2022-10-17T09:11:33.500Z,9.463008
2022-10-17T09:12:33.468Z,9.462888
2022-10-17T09:13:33.535Z,9.462758
2022-10-17T09:14:33.460Z,9.462853
2022-10-17T09:15:33.444Z,9.462945
2022-10-17T09:16:33.453Z,9.462812
2022-10-17T09:17:33.448Z,9.462753
2022-10-17T09:18:33.425Z,9.462917
2022-10-17T09:19:33.422Z,9.463107
2022-10-17T09:20:33.427Z,9.463067
2022-10-17T09:21:33.885Z,9.462931
2022-10-17T09:22:33.456Z,9.462942
2022-10-17T09:23:33.431Z,9.463066
2022-10-17T09:24:33.385Z,9.463071
2022-10-17T09:25:33.378Z,9.462948
2022-10-17T09:26:33.480Z,9.463124
2022-10-17T09:27:33.359Z,9.462969
2022-10-17T09:28:33.468Z,9.462910
2022-10-17T09:29:37.970Z,9.462976
2022-10-17T09:30:44.614Z,9.463009
2022-10-17T09:31:34.361Z,9.463010
2022-10-17T09:32:33.380Z,9.462956
2022-10-17T09:33:42.385Z,9.463048
2022-10-17T09:34:34.317Z,9.462987
2022-10-17T09:35:33.302Z,9.463031
2022-10-17T09:36:33.465Z,9.463010
2022-10-17T09:37:33.289Z,9.462976
2022-10-17T09:38:33.286Z,9.462952
2022-10-17T09:39:33.285Z,9.462932
2022-10-17T09:40:33.279Z,9.462970
2022-10-17T09:41:44.875Z,9.462976
2022-10-17T09:42:34.282Z,9.462970
2022-10-17T09:43:33.258Z,9.462902
2022-10-17T09:44:33.251Z,9.463024
2022-10-17T09:45:33.242Z,9.462990
2022-10-17T09:46:33.387Z,9.463054
2022-10-17T09:47:33.221Z,9.463041
2022-10-17T09:48:33.222Z,9.463077
2022-10-17T09:49:33.212Z,9.463047
2022-10-17T09:50:33.211Z,9.463002
2022-10-17T09:51:33.218Z,9.462943
2022-10-17T09:52:33.206Z,9.462955
2022-10-17T09:53:33.194Z,9.462943
2022-10-17T09:54:33.184Z,9.462873
2022-10-17T09:55:33.801Z,9.462980
2022-10-17T09:56:33.165Z,9.463001
2022-10-17T09:57:33.172Z,9.462992
2022-10-17T09:58:33.217Z,9.462985
2022-10-17T09:59:33.141Z,9.463014
2022-10-17T10:00:33.233Z,9.462998
2022-10-17T10:01:33.134Z,9.462936
2022-10-17T10:02:33.499Z,9.462960
2022-10-17T10:03:33.123Z,9.462930
2022-10-17T10:04:46.790Z,9.462984
2022-10-17T10:05:34.395Z,9.462996
2022-10-17T10:06:33.104Z,9.462983
2022-10-17T10:07:33.086Z,9.462975
2022-10-17T10:08:33.092Z,9.462975
2022-10-17T10:09:34.856Z,9.462972
2022-10-17T10:10:33.071Z,9.462970
2022-10-17T10:11:33.078Z,9.462970
2022-10-17T10:12:33.257Z,9.462980
2022-10-17T10:13:33.114Z,9.463007
2022-10-17T10:14:33.197Z,9.462946
2022-10-17T10:15:33.035Z,9.463039
2022-10-17T10:16:33.049Z,9.463055
2022-10-17T10:17:33.022Z,9.463003
2022-10-17T10:18:33.102Z,9.462921
2022-10-17T10:19:33.021Z,9.462985
2022-10-17T10:20:33.002Z,9.463043
2022-10-17T10:21:33.959Z,9.462984
2022-10-17T10:22:33.125Z,9.463004
2022-10-17T10:23:32.979Z,9.463143
2022-10-17T10:24:32.977Z,9.462941
2022-10-17T10:25:32.964Z,9.462873
2022-10-17T10:26:32.958Z,9.463082
2022-10-17T10:28:33.371Z,9.462799
2022-10-17T10:29:32.959Z,9.463000
2022-10-17T10:36:06.351Z,9.463031
2022-10-17T10:37:06.332Z,9.463001
2022-10-17T10:38:06.310Z,9.463067
2022-10-17T10:39:06.309Z,9.463100
2022-10-17T10:40:06.388Z,9.463062
2022-10-17T10:41:06.302Z,9.463036
2022-10-17T10:42:06.300Z,9.463095
2022-10-17T10:43:06.298Z,9.463194
2022-10-17T10:44:06.821Z,9.463264
2022-10-17T10:45:07.483Z,9.463255
2022-10-17T10:46:06.261Z,9.463238
2022-10-17T10:47:06.261Z,9.463257
2022-10-17T10:48:06.293Z,9.463265
2022-10-17T10:49:06.580Z,9.463264
2022-10-17T10:50:06.249Z,9.463234
2022-10-17T10:51:06.289Z,9.463258
2022-10-17T10:52:06.205Z,9.463206
2022-10-17T10:53:06.198Z,9.463169
2022-10-17T10:54:06.264Z,9.463187
2022-10-17T10:55:06.254Z,9.463190
2022-10-17T10:56:06.203Z,9.463247
2022-10-17T10:57:06.233Z,9.463175
2022-10-17T10:58:06.208Z,9.463162
2022-10-17T10:59:08.187Z,9.463242
2022-10-17T11:00:06.156Z,9.463203
2022-10-17T11:01:06.367Z,9.463229
2022-10-17T11:02:06.175Z,9.463226
2022-10-17T11:03:09.389Z,9.463118
2022-10-17T11:04:07.157Z,9.463123
2022-10-17T11:05:06.183Z,9.463162
2022-10-17T11:06:06.105Z,9.463110
2022-10-17T11:07:06.114Z,9.463178
2022-10-17T11:08:06.094Z,9.463225
2022-10-17T11:09:06.078Z,9.463153
2022-10-17T11:10:06.096Z,9.463117
2022-10-17T11:11:06.120Z,9.463100
2022-10-17T11:12:06.089Z,9.463109
2022-10-17T11:13:06.097Z,9.463142
2022-10-17T11:14:06.040Z,9.463095
2022-10-17T11:15:06.035Z,9.463097
2022-10-17T11:16:06.025Z,9.463043
2022-10-17T11:17:06.016Z,9.463067
2022-10-17T11:18:06.164Z,9.463101
2022-10-17T11:19:06.093Z,9.463081
2022-10-17T11:20:06.016Z,9.463114
2022-10-17T11:21:05.986Z,9.463060
2022-10-17T11:22:05.993Z,9.463019
2022-10-17T11:23:05.989Z,9.463030
2022-10-17T11:24:06.998Z,9.463047
2022-10-17T11:25:05.964Z,9.463015
2022-10-17T11:26:05.966Z,9.463037
2022-10-17T11:27:05.964Z,9.463073
2022-10-17T11:28:05.977Z,9.463042
2022-10-17T11:29:06.067Z,9.463003
2022-10-17T11:30:05.948Z,9.462993
2022-10-17T11:31:07.908Z,9.462975
2022-10-17T11:32:05.917Z,9.463001
2022-10-17T11:33:05.900Z,9.462990
2022-10-17T11:34:05.889Z,9.463020
2022-10-17T11:35:05.895Z,9.463021
2022-10-17T11:36:05.932Z,9.463032
2022-10-17T11:37:06.076Z,9.463017
2022-10-17T11:38:05.862Z,9.463037
2022-10-17T11:39:05.874Z,9.463002
2022-10-17T11:40:05.847Z,9.462978
2022-10-17T11:41:05.854Z,9.463011
2022-10-17T11:42:05.830Z,9.463038
2022-10-17T11:43:05.835Z,9.463008
2022-10-17T11:44:05.820Z,9.463009
2022-10-17T11:45:05.834Z,9.463033
2022-10-17T11:46:05.822Z,9.463042
2022-10-17T11:47:05.958Z,9.463044
2022-10-17T11:48:05.792Z,9.463117
2022-10-17T11:49:05.899Z,9.463033
2022-10-17T11:52:06.804Z,9.463018
2022-10-17T11:53:05.762Z,9.463003